createdAt,value
2022-10-18T00:00:44.803Z,58
2022-10-18T00:01:47.005Z,59
2022-10-18T00:02:48.954Z,59
2022-10-18T00:03:50.874Z,59
2022-10-18T00:04:52.824Z,58
2022-10-18T00:05:54.871Z,57
2022-10-18T00:06:56.892Z,58
2022-10-18T00:07:58.831Z,59
2022-10-18T00:09:00.787Z,59
2022-10-18T00:10:02.960Z,59
2022-10-18T00:11:04.852Z,58
2022-10-18T00:12:06.876Z,58
2022-10-18T00:13:08.891Z,57
2022-10-18T00:14:10.854Z,58
2022-10-18T00:15:12.833Z,58
2022-10-18T00:16:14.794Z,58
2022-10-18T00:17:15.772Z,59
2022-10-18T00:18:16.819Z,59
2022-10-18T00:19:17.771Z,60
2022-10-18T00:20:18.780Z,60
2022-10-18T00:21:19.754Z,59
2022-10-18T00:22:20.935Z,60
2022-10-18T00:23:22.945Z,60
2022-10-18T00:24:24.891Z,61
2022-10-18T00:25:26.911Z,61
2022-10-18T00:26:28.850Z,60
2022-10-18T00:27:30.917Z,60
2022-10-18T00:28:32.828Z,60
2022-10-18T00:29:34.892Z,60
2022-10-18T00:30:36.919Z,60
2022-10-18T00:31:39.351Z,59
2022-10-18T00:32:40.914Z,60
2022-10-18T00:33:42.951Z,60
2022-10-18T00:34:44.873Z,60
2022-10-18T00:35:46.871Z,61
2022-10-18T00:36:48.831Z,60
2022-10-18T00:37:50.892Z,61
2022-10-18T00:38:52.911Z,61
2022-10-18T00:39:54.896Z,61
2022-10-18T00:40:56.892Z,60
2022-10-18T00:41:58.773Z,61
2022-10-18T00:42:59.860Z,61
2022-10-18T00:44:01.952Z,60
2022-10-18T00:45:03.898Z,61
2022-10-18T00:46:05.911Z,61
2022-10-18T00:47:08.234Z,61
2022-10-18T00:48:09.851Z,60
2022-10-18T00:49:11.754Z,61
2022-10-18T00:50:12.752Z,60
2022-10-18T00:51:13.811Z,61
2022-10-18T00:52:15.872Z,60
2022-10-18T00:53:16.772Z,61
2022-10-18T00:54:17.830Z,61
2022-10-18T00:55:18.831Z,62
2022-10-18T00:56:19.792Z,62
2022-10-18T00:57:20.911Z,62
2022-10-18T00:58:22.938Z,62
2022-10-18T00:59:24.861Z,64
2022-10-18T01:00:26.951Z,62
2022-10-18T01:01:28.901Z,62
2022-10-18T01:02:31.207Z,62
2022-10-18T01:03:32.872Z,62
2022-10-18T01:04:34.739Z,62
2022-10-18T01:05:35.911Z,62
2022-10-18T01:06:37.911Z,65
2022-10-18T01:07:39.835Z,64
2022-10-18T01:08:42.013Z,64
2022-10-18T01:09:43.920Z,64
2022-10-18T01:10:45.833Z,65
2022-10-18T01:11:47.792Z,66
2022-10-18T01:12:48.874Z,66
2022-10-18T01:13:50.986Z,66
2022-10-18T01:14:52.872Z,65
2022-10-18T01:16:56.831Z,65
2022-10-18T01:17:58.781Z,66
2022-10-18T01:18:59.796Z,65
2022-10-18T01:20:00.851Z,65
2022-10-18T01:21:01.873Z,65
2022-10-18T01:22:02.817Z,66
2022-10-18T01:23:03.711Z,65
2022-10-18T01:24:04.872Z,65
2022-10-18T01:25:05.826Z,65
2022-10-18T01:26:06.811Z,65
2022-10-18T01:27:07.816Z,66
2022-10-18T01:28:08.886Z,65
2022-10-18T01:29:11.239Z,65
2022-10-18T01:30:12.932Z,66
2022-10-18T01:31:14.931Z,65
2022-10-18T01:32:17.072Z,66
2022-10-18T01:33:18.873Z,66
2022-10-18T01:34:20.971Z,65
2022-10-18T01:35:22.991Z,66
2022-10-18T01:36:24.814Z,67
2022-10-18T01:37:25.991Z,66
2022-10-18T01:38:27.932Z,64
2022-10-18T01:39:29.911Z,65
2022-10-18T01:40:31.955Z,66
2022-10-18T01:41:33.913Z,65
2022-10-18T01:42:35.932Z,67
2022-10-18T01:43:37.931Z,64
2022-10-18T01:44:39.958Z,65
2022-10-18T01:45:41.871Z,66
2022-10-18T01:46:44.049Z,67
2022-10-18T01:47:45.991Z,67
2022-10-18T01:48:48.052Z,67
2022-10-18T01:49:50.012Z,67
2022-10-18T01:50:56.992Z,67
2022-10-18T01:51:59.028Z,66
2022-10-18T01:53:00.912Z,66
2022-10-18T01:54:02.832Z,67
2022-10-18T01:55:03.874Z,67
2022-10-18T01:56:04.832Z,67
2022-10-18T01:57:05.872Z,67
2022-10-18T01:58:06.860Z,67
2022-10-18T01:59:07.912Z,67
2022-10-18T02:00:09.997Z,66
2022-10-18T02:04:15.172Z,67
2022-10-18T02:05:17.011Z,67
2022-10-18T02:06:18.934Z,67
2022-10-18T02:07:20.812Z,67
2022-10-18T02:08:23.834Z,68
2022-10-18T02:09:24.970Z,69
2022-10-18T02:10:26.933Z,69
2022-10-18T02:11:28.892Z,69
2022-10-18T02:12:30.083Z,68
2022-10-18T02:13:31.020Z,68
2022-10-18T02:14:32.895Z,67
2022-10-18T02:15:35.056Z,67
2022-10-18T02:16:36.933Z,68
2022-10-18T02:17:38.972Z,67
2022-10-18T02:18:41.031Z,71
2022-10-18T02:19:43.011Z,70
2022-10-18T02:20:44.919Z,68
2022-10-18T02:21:46.912Z,68
2022-10-18T02:22:48.953Z,74
2022-10-18T02:23:50.992Z,69
2022-10-18T02:24:52.991Z,68
2022-10-18T02:25:54.931Z,68
2022-10-18T02:26:57.012Z,68
2022-10-18T02:27:58.849Z,68
2022-10-18T02:29:00.892Z,69
2022-10-18T02:30:03.032Z,69
2022-10-18T02:31:04.928Z,69
2022-10-18T02:32:06.853Z,69
2022-10-18T02:33:08.911Z,69
2022-10-18T02:34:10.811Z,69
2022-10-18T02:35:11.892Z,69
2022-10-18T02:36:12.813Z,70
2022-10-18T02:37:13.879Z,71
2022-10-18T02:38:14.811Z,72
2022-10-18T02:39:15.900Z,71
2022-10-18T02:40:17.971Z,71
2022-10-18T02:41:19.931Z,70
2022-10-18T02:42:21.953Z,71
2022-10-18T02:43:23.834Z,70
2022-10-18T02:44:24.834Z,71
2022-10-18T02:45:25.851Z,70
2022-10-18T02:47:27.876Z,71
2022-10-18T02:48:28.973Z,70
2022-10-18T02:49:30.971Z,70
2022-10-18T02:50:32.960Z,70
2022-10-18T02:51:34.971Z,69
2022-10-18T02:52:37.132Z,70
2022-10-18T02:53:38.973Z,70
2022-10-18T02:54:40.954Z,70
2022-10-18T02:55:42.951Z,71
2022-10-18T02:56:44.914Z,72
2022-10-18T02:57:46.942Z,71
2022-10-18T02:58:48.953Z,71
2022-10-18T02:59:50.961Z,70
2022-10-18T03:00:52.912Z,72
2022-10-18T03:01:54.941Z,72
2022-10-18T03:02:55.851Z,72
2022-10-18T03:03:56.851Z,72
2022-10-18T03:04:57.893Z,72
2022-10-18T03:05:58.872Z,72
2022-10-18T03:06:59.833Z,71
2022-10-18T03:08:00.852Z,72
2022-10-18T03:09:02.971Z,70
2022-10-18T03:10:04.931Z,70
2022-10-18T03:11:06.952Z,70
2022-10-18T03:12:08.935Z,71
2022-10-18T03:13:10.911Z,70
2022-10-18T03:14:13.051Z,71
2022-10-18T03:15:14.932Z,70
2022-10-18T03:16:16.930Z,70
2022-10-18T03:17:19.032Z,70
2022-10-18T03:18:20.852Z,71
2022-10-18T03:19:21.914Z,71
2022-10-18T03:20:22.857Z,71
2022-10-18T03:21:24.892Z,70
2022-10-18T03:22:26.992Z,70
2022-10-18T03:23:28.951Z,71
2022-10-18T03:24:30.951Z,71
2022-10-18T03:25:32.911Z,71
2022-10-18T03:26:33.853Z,72
2022-10-18T03:27:35.101Z,73
2022-10-18T03:28:37.059Z,74
2022-10-18T03:29:38.935Z,72
2022-10-18T03:30:41.052Z,75
2022-10-18T03:31:42.992Z,74
2022-10-18T03:32:44.956Z,74
2022-10-18T03:33:46.951Z,74
2022-10-18T03:34:48.872Z,72
2022-10-18T03:35:50.011Z,72
2022-10-18T03:36:51.899Z,71
2022-10-18T03:37:52.894Z,71
2022-10-18T03:38:54.971Z,70
2022-10-18T03:39:56.912Z,71
2022-10-18T03:40:59.091Z,71
2022-10-18T03:42:01.052Z,72
2022-10-18T03:43:02.992Z,72
2022-10-18T03:44:04.870Z,73
2022-10-18T03:45:06.992Z,73
2022-10-18T03:46:09.012Z,76
2022-10-18T03:47:10.973Z,75
2022-10-18T03:48:12.976Z,75
2022-10-18T03:49:14.992Z,75
2022-10-18T03:50:17.011Z,75
2022-10-18T03:51:19.061Z,75
2022-10-18T03:52:21.071Z,76
2022-10-18T03:53:22.929Z,74
2022-10-18T03:54:24.932Z,74
2022-10-18T03:55:26.992Z,73
2022-10-18T03:56:29.072Z,73
2022-10-18T03:57:31.161Z,72
2022-10-18T03:59:35.060Z,72
2022-10-18T04:00:37.159Z,72
2022-10-18T04:01:38.928Z,71
2022-10-18T04:02:40.931Z,73
2022-10-18T04:03:43.097Z,71
2022-10-18T04:04:45.053Z,73
2022-10-18T04:05:47.080Z,74
2022-10-18T04:06:48.991Z,73
2022-10-18T04:07:51.072Z,72
2022-10-18T04:08:52.952Z,72
2022-10-18T04:09:54.072Z,73
2022-10-18T04:10:56.012Z,74
2022-10-18T04:11:57.953Z,72
2022-10-18T04:12:59.940Z,73
2022-10-18T04:14:01.972Z,73
2022-10-18T04:15:02.951Z,75
2022-10-18T04:16:03.932Z,72
2022-10-18T04:17:04.923Z,71
2022-10-18T04:18:05.993Z,71
2022-10-18T04:19:07.958Z,72
2022-10-18T04:20:10.072Z,71
2022-10-18T04:21:11.971Z,71
2022-10-18T04:22:14.001Z,73
2022-10-18T04:23:15.991Z,74
2022-10-18T04:24:17.994Z,72
2022-10-18T04:25:19.999Z,73
2022-10-18T04:26:22.039Z,72
2022-10-18T04:27:24.052Z,72
2022-10-18T04:28:26.047Z,72
2022-10-18T04:29:27.912Z,73
2022-10-18T04:30:28.887Z,73
2022-10-18T04:31:30.031Z,72
2022-10-18T04:32:31.972Z,74
2022-10-18T04:33:34.012Z,74
2022-10-18T04:34:36.163Z,75
2022-10-18T04:35:38.012Z,74
2022-10-18T04:36:40.472Z,72
2022-10-18T04:37:41.952Z,71
2022-10-18T04:38:43.991Z,72
2022-10-18T04:39:47.371Z,72
2022-10-18T04:40:47.947Z,73
2022-10-18T04:41:50.037Z,71
2022-10-18T04:42:51.944Z,74
2022-10-18T04:43:53.971Z,72
2022-10-18T04:44:56.051Z,72
2022-10-18T04:45:57.932Z,73
2022-10-18T04:46:58.951Z,72
2022-10-18T04:48:00.112Z,74
2022-10-18T04:49:01.932Z,73
2022-10-18T04:50:03.020Z,73
2022-10-18T04:51:03.991Z,74
2022-10-18T04:52:04.993Z,74
2022-10-18T04:53:05.992Z,74
2022-10-18T04:54:08.013Z,73
2022-10-18T04:55:09.931Z,74
2022-10-18T04:56:11.872Z,73
2022-10-18T04:57:12.952Z,72
2022-10-18T04:58:13.932Z,72
2022-10-18T04:59:14.972Z,76
2022-10-18T05:00:15.897Z,77
2022-10-18T05:01:16.965Z,76
2022-10-18T05:02:18.902Z,75
2022-10-18T05:03:19.934Z,75
2022-10-18T05:04:20.952Z,74
2022-10-18T05:05:22.185Z,74
2022-10-18T05:06:22.893Z,74
2022-10-18T05:07:23.912Z,73
2022-10-18T05:08:24.951Z,74
2022-10-18T05:09:25.952Z,74
2022-10-18T05:10:26.932Z,74
2022-10-18T05:11:27.921Z,75
2022-10-18T05:12:29.165Z,76
2022-10-18T05:13:29.971Z,76
2022-10-18T05:14:30.911Z,78
2022-10-18T05:15:31.963Z,78
2022-10-18T05:16:32.912Z,78
2022-10-18T05:17:33.931Z,79
2022-10-18T05:18:34.991Z,80
2022-10-18T05:19:37.011Z,78
2022-10-18T05:20:39.123Z,79
2022-10-18T05:21:41.312Z,80
2022-10-18T05:22:43.014Z,79
2022-10-18T05:23:45.072Z,80
2022-10-18T05:24:47.060Z,79
2022-10-18T05:25:48.990Z,79
2022-10-18T05:26:51.032Z,78
2022-10-18T05:27:52.973Z,76
2022-10-18T05:28:54.032Z,78
2022-10-18T05:29:57.121Z,76
2022-10-18T05:30:57.991Z,76
2022-10-18T05:31:59.998Z,76
2022-10-18T05:33:02.174Z,76
2022-10-18T05:34:04.119Z,77
2022-10-18T05:35:06.093Z,76
2022-10-18T05:36:08.016Z,75
2022-10-18T05:37:10.061Z,76
2022-10-18T05:38:12.032Z,79
2022-10-18T05:39:14.076Z,79
2022-10-18T05:40:16.072Z,78
2022-10-18T05:41:18.012Z,79
2022-10-18T05:42:19.970Z,79
2022-10-18T05:43:22.032Z,79
2022-10-18T05:44:24.012Z,80
2022-10-18T05:45:26.092Z,81
2022-10-18T05:46:28.036Z,81
2022-10-18T05:47:30.064Z,81
2022-10-18T05:48:32.154Z,81
2022-10-18T05:49:34.123Z,81
2022-10-18T05:50:38.030Z,82
2022-10-18T05:51:36.977Z,79
2022-10-18T05:52:38.072Z,80
2022-10-18T05:53:40.013Z,78
2022-10-18T05:54:42.119Z,77
2022-10-18T05:55:44.012Z,78
2022-10-18T05:56:46.012Z,81
2022-10-18T05:57:48.053Z,79
2022-10-18T05:58:50.112Z,82
2022-10-18T05:59:52.072Z,82
2022-10-18T06:00:54.114Z,80
2022-10-18T06:01:56.032Z,81
2022-10-18T06:02:59.439Z,78
2022-10-18T06:04:00.092Z,80
2022-10-18T06:05:02.161Z,82
2022-10-18T06:06:04.084Z,82
2022-10-18T06:07:06.123Z,84
2022-10-18T06:08:10.175Z,82
2022-10-18T06:09:10.011Z,82
2022-10-18T06:10:11.992Z,81
2022-10-18T06:11:13.956Z,87
2022-10-18T06:12:15.014Z,85
2022-10-18T06:13:16.012Z,85
2022-10-18T06:14:16.992Z,81
2022-10-18T06:15:18.012Z,80
2022-10-18T06:16:20.206Z,79
2022-10-18T06:17:22.113Z,78
2022-10-18T06:18:24.013Z,78
2022-10-18T06:19:26.093Z,77
2022-10-18T06:20:28.111Z,77
2022-10-18T06:21:30.001Z,77
2022-10-18T06:22:30.998Z,75
2022-10-18T06:23:31.990Z,79
2022-10-18T06:24:33.045Z,78
2022-10-18T06:25:34.013Z,75
2022-10-18T06:26:35.052Z,75
2022-10-18T06:27:35.953Z,76
2022-10-18T06:28:37.060Z,79
2022-10-18T06:29:38.039Z,73
2022-10-18T06:30:40.097Z,76
2022-10-18T06:31:42.112Z,76
2022-10-18T06:32:44.391Z,76
2022-10-18T06:33:46.075Z,77
2022-10-18T06:34:48.032Z,74
2022-10-18T06:35:50.092Z,77
2022-10-18T06:36:54.923Z,74
2022-10-18T06:37:53.098Z,75
2022-10-18T06:38:55.111Z,74
2022-10-18T06:39:57.053Z,75
2022-10-18T06:40:59.032Z,77
2022-10-18T06:42:01.092Z,76
2022-10-18T06:43:16.461Z,79
2022-10-18T06:44:04.966Z,77
2022-10-18T06:45:06.068Z,77
2022-10-18T06:46:08.122Z,75
2022-10-18T06:47:10.140Z,76
2022-10-18T06:48:12.181Z,76
2022-10-18T06:49:15.281Z,76
2022-10-18T06:50:16.139Z,77
2022-10-18T06:51:18.079Z,77
2022-10-18T06:52:19.978Z,77
2022-10-18T06:53:21.086Z,77
2022-10-18T06:54:23.199Z,80
2022-10-18T06:55:25.139Z,78
2022-10-18T06:56:27.119Z,76
2022-10-18T06:57:29.039Z,74
2022-10-18T06:58:31.230Z,73
2022-10-18T06:59:33.099Z,77
2022-10-18T07:00:35.099Z,75
2022-10-18T07:01:37.084Z,72
2022-10-18T07:02:39.003Z,73
2022-10-18T07:03:41.416Z,72
2022-10-18T07:04:43.119Z,71
2022-10-18T07:05:45.082Z,71
2022-10-18T07:06:47.110Z,70
2022-10-18T07:07:51.708Z,70
2022-10-18T07:08:51.585Z,72
2022-10-18T07:09:53.138Z,72
2022-10-18T07:10:55.179Z,70
2022-10-18T07:11:57.101Z,70
2022-10-18T07:13:13.493Z,72
2022-10-18T07:14:00.289Z,68
2022-10-18T07:15:05.595Z,70
2022-10-18T07:16:04.029Z,69
2022-10-18T07:17:06.060Z,69
2022-10-18T07:18:08.059Z,70
2022-10-18T07:19:10.180Z,74
2022-10-18T07:20:12.178Z,73
2022-10-18T07:21:14.058Z,73
2022-10-18T07:22:16.199Z,72
2022-10-18T07:23:18.187Z,72
2022-10-18T07:24:20.161Z,72
2022-10-18T07:25:23.175Z,71
2022-10-18T07:26:24.085Z,71
2022-10-18T07:27:26.101Z,72
2022-10-18T07:28:28.036Z,70
2022-10-18T07:29:29.070Z,70
2022-10-18T07:30:30.041Z,69
2022-10-18T07:31:31.097Z,71
2022-10-18T07:32:33.157Z,71
2022-10-18T07:33:35.071Z,70
2022-10-18T07:34:37.220Z,68
2022-10-18T07:35:39.152Z,69
2022-10-18T07:36:41.583Z,68
2022-10-18T07:37:43.119Z,69
2022-10-18T07:38:45.092Z,69
2022-10-18T07:39:47.186Z,69
2022-10-18T07:40:49.089Z,70
2022-10-18T07:41:51.161Z,69
2022-10-18T07:42:53.040Z,70
2022-10-18T07:43:54.020Z,70
2022-10-18T07:44:55.115Z,69
2022-10-18T07:45:57.178Z,69
2022-10-18T07:46:59.138Z,70
2022-10-18T07:48:01.181Z,69
2022-10-18T07:49:03.159Z,68
2022-10-18T07:50:05.260Z,69
2022-10-18T07:51:07.127Z,66
2022-10-18T07:52:09.208Z,68
2022-10-18T07:53:11.199Z,68
2022-10-18T07:54:13.142Z,67
2022-10-18T07:55:15.186Z,69
2022-10-18T07:56:17.233Z,69
2022-10-18T07:57:19.099Z,69
2022-10-18T07:58:21.287Z,68
2022-10-18T07:59:23.280Z,68
2022-10-18T08:00:25.159Z,68
2022-10-18T08:01:27.429Z,67
2022-10-18T08:02:29.119Z,67
2022-10-18T08:03:31.101Z,68
2022-10-18T08:04:33.022Z,67
2022-10-18T08:05:34.184Z,65
2022-10-18T08:06:36.199Z,67
2022-10-18T08:07:38.100Z,66
2022-10-18T08:08:39.059Z,66
2022-10-18T08:09:40.234Z,66
2022-10-18T08:10:42.704Z,65
2022-10-18T08:11:44.162Z,65
2022-10-18T08:12:46.199Z,65
2022-10-18T08:13:48.240Z,64
2022-10-18T08:14:50.219Z,65
2022-10-18T08:15:52.159Z,64
2022-10-18T08:16:54.180Z,62
2022-10-18T08:17:56.163Z,62
2022-10-18T08:18:58.144Z,64
2022-10-18T08:20:11.213Z,64
2022-10-18T08:21:02.216Z,62
2022-10-18T08:22:04.195Z,64
2022-10-18T08:23:06.224Z,65
2022-10-18T08:24:08.258Z,65
2022-10-18T08:25:10.210Z,64
2022-10-18T08:26:12.214Z,64
2022-10-18T08:27:14.118Z,64
2022-10-18T08:28:16.159Z,64
2022-10-18T08:29:23.146Z,62
2022-10-18T08:30:20.278Z,62
2022-10-18T08:31:22.178Z,62
2022-10-18T08:32:24.081Z,65
2022-10-18T08:33:26.154Z,65
2022-10-18T08:34:28.227Z,64
2022-10-18T08:35:30.080Z,64
2022-10-18T08:36:31.182Z,64
2022-10-18T08:37:33.340Z,62
2022-10-18T08:38:34.101Z,62
2022-10-18T08:39:35.160Z,62
2022-10-18T08:40:37.359Z,62
2022-10-18T08:41:39.147Z,62
2022-10-18T08:42:41.139Z,62
2022-10-18T08:43:43.238Z,62
2022-10-18T08:44:45.128Z,64
2022-10-18T08:45:47.199Z,62
2022-10-18T08:46:49.086Z,62
2022-10-18T08:47:50.019Z,62
2022-10-18T08:48:51.038Z,65
2022-10-18T08:49:52.166Z,64
2022-10-18T08:50:54.299Z,61
2022-10-18T08:51:56.164Z,62
2022-10-18T08:52:58.204Z,61
2022-10-18T08:54:00.158Z,62
2022-10-18T08:55:02.265Z,62
2022-10-18T08:56:04.235Z,62
2022-10-18T08:57:06.262Z,62
2022-10-18T08:58:08.290Z,61
2022-10-18T08:59:10.199Z,61
2022-10-18T09:00:12.199Z,61
2022-10-18T09:01:14.215Z,61
2022-10-18T09:02:16.299Z,62
2022-10-18T09:03:18.258Z,62
2022-10-18T09:04:20.130Z,62
2022-10-18T09:05:22.142Z,62
2022-10-18T09:06:24.239Z,61
2022-10-18T09:07:26.159Z,62
2022-10-18T09:08:28.131Z,61
2022-10-18T09:09:30.168Z,64
2022-10-18T09:10:32.093Z,62
2022-10-18T09:11:33.160Z,64
2022-10-18T09:12:34.437Z,64
2022-10-18T09:13:35.153Z,64
2022-10-18T09:14:37.107Z,65
2022-10-18T09:15:39.300Z,64
2022-10-18T09:16:44.331Z,64
2022-10-18T09:17:46.306Z,62
2022-10-18T09:18:48.218Z,64
2022-10-18T09:19:50.305Z,65
2022-10-18T09:20:52.307Z,64
2022-10-18T09:21:54.278Z,62
2022-10-18T09:22:56.238Z,62
2022-10-18T09:23:58.219Z,62
2022-10-18T09:25:00.278Z,61
2022-10-18T09:26:02.179Z,61
2022-10-18T09:27:04.247Z,62
2022-10-18T09:28:06.309Z,62
2022-10-18T09:29:08.249Z,62
2022-10-18T09:30:10.278Z,62
2022-10-18T09:31:12.198Z,62
2022-10-18T09:32:14.259Z,62
2022-10-18T09:33:16.118Z,64
2022-10-18T09:34:17.099Z,64
2022-10-18T09:35:18.178Z,64
2022-10-18T09:36:20.296Z,64
2022-10-18T09:37:22.199Z,62
2022-10-18T09:39:26.200Z,64
2022-10-18T09:40:28.280Z,65
2022-10-18T09:41:30.218Z,65
2022-10-18T09:42:32.562Z,65
2022-10-18T09:43:34.331Z,65
2022-10-18T09:44:36.126Z,66
2022-10-18T09:45:38.299Z,65
2022-10-18T09:46:40.219Z,65
2022-10-18T09:47:42.199Z,66
2022-10-18T09:48:44.260Z,66
2022-10-18T09:49:46.220Z,67
2022-10-18T09:50:48.274Z,66
2022-10-18T09:51:50.163Z,64
2022-10-18T09:52:52.084Z,66
2022-10-18T09:53:53.110Z,66
2022-10-18T09:54:55.199Z,67
2022-10-18T09:55:57.297Z,66
2022-10-18T09:56:59.259Z,67
2022-10-18T09:58:01.280Z,66
2022-10-18T09:59:03.282Z,65
2022-10-18T10:00:05.346Z,65
2022-10-18T10:01:07.286Z,65
2022-10-18T10:02:09.365Z,65
2022-10-18T10:03:11.279Z,66
2022-10-18T10:04:13.277Z,65
2022-10-18T10:05:15.210Z,66
2022-10-18T10:06:17.187Z,66
2022-10-18T10:07:19.238Z,66
2022-10-18T10:08:21.199Z,67
2022-10-18T10:09:23.218Z,67
2022-10-18T10:10:25.143Z,65
2022-10-18T10:11:27.258Z,65
2022-10-18T10:12:29.282Z,65
2022-10-18T10:13:31.259Z,65
2022-10-18T10:14:33.313Z,66
2022-10-18T10:15:36.983Z,66
2022-10-18T10:16:37.199Z,66
2022-10-18T10:17:39.358Z,65
2022-10-18T10:18:41.149Z,66
2022-10-18T10:19:43.150Z,67
2022-10-18T10:20:44.075Z,67
2022-10-18T10:21:45.172Z,68
2022-10-18T10:22:47.339Z,66
2022-10-18T10:23:49.259Z,67
2022-10-18T10:24:51.219Z,67
2022-10-18T10:25:53.239Z,66
2022-10-18T10:26:55.098Z,65
2022-10-18T10:27:57.260Z,65
2022-10-18T10:28:59.372Z,65
2022-10-18T10:30:04.289Z,65
2022-10-18T10:31:03.281Z,67
2022-10-18T10:32:05.298Z,66
2022-10-18T10:33:07.226Z,66
2022-10-18T10:34:09.242Z,65
2022-10-18T10:35:14.396Z,66
2022-10-18T10:36:13.199Z,67
2022-10-18T10:37:15.243Z,66
2022-10-18T10:38:17.199Z,65
2022-10-18T10:39:19.298Z,65
2022-10-18T10:40:24.030Z,66
2022-10-18T10:41:23.347Z,66
2022-10-18T10:42:25.280Z,67
2022-10-18T10:43:42.034Z,66
2022-10-18T10:44:29.199Z,65
2022-10-18T10:45:31.264Z,66
2022-10-18T10:46:33.315Z,66
2022-10-18T10:47:35.160Z,65
2022-10-18T10:48:36.250Z,65
2022-10-18T10:49:40.905Z,66
2022-10-18T10:50:40.238Z,66
2022-10-18T10:51:42.201Z,66
2022-10-18T10:52:44.296Z,66
2022-10-18T10:53:46.281Z,66
2022-10-18T10:54:51.465Z,67
2022-10-18T10:55:50.160Z,67
2022-10-18T10:56:51.119Z,66
2022-10-18T10:57:52.202Z,66
2022-10-18T10:58:53.226Z,66
2022-10-18T10:59:54.179Z,67
2022-10-18T11:00:56.322Z,66
2022-10-18T11:01:58.278Z,67
2022-10-18T11:03:06.082Z,67
2022-10-18T11:04:02.441Z,66
2022-10-18T11:05:04.343Z,67
2022-10-18T11:06:06.333Z,66
2022-10-18T11:07:08.342Z,66
2022-10-18T11:08:10.260Z,66
2022-10-18T11:09:12.280Z,67
2022-10-18T11:10:14.258Z,68
2022-10-18T11:11:18.010Z,66
2022-10-18T11:12:18.287Z,66
2022-10-18T11:13:20.278Z,66
2022-10-18T11:14:26.393Z,67
2022-10-18T11:15:24.258Z,67
2022-10-18T11:16:26.403Z,67
2022-10-18T11:17:28.338Z,67
2022-10-18T11:18:30.330Z,67
2022-10-18T11:19:32.320Z,68
2022-10-18T11:20:34.190Z,68
2022-10-18T11:21:35.140Z,67
2022-10-18T11:22:36.180Z,66
2022-10-18T11:23:37.139Z,66
2022-10-18T11:24:38.098Z,67
2022-10-18T11:25:39.219Z,66
2022-10-18T11:26:41.024Z,67
2022-10-18T11:27:42.338Z,67
2022-10-18T11:28:44.277Z,67
2022-10-18T11:29:46.348Z,66
2022-10-18T11:30:48.283Z,67
2022-10-18T11:31:50.323Z,66
2022-10-18T11:32:52.305Z,67
2022-10-18T11:34:08.555Z,66
2022-10-18T11:34:56.299Z,67
2022-10-18T11:36:02.911Z,67
2022-10-18T11:37:22.794Z,67
2022-10-18T11:38:02.427Z,66
2022-10-18T11:39:04.217Z,66
2022-10-18T11:40:06.324Z,66
2022-10-18T11:41:08.255Z,66
2022-10-18T11:42:10.344Z,67
2022-10-18T11:43:12.360Z,68
2022-10-18T11:44:14.225Z,67
2022-10-18T11:45:16.319Z,66
2022-10-18T11:46:18.221Z,66
2022-10-18T11:47:20.402Z,67
2022-10-18T11:48:22.241Z,68
2022-10-18T11:49:24.320Z,66
2022-10-18T11:50:26.281Z,67
2022-10-18T11:51:33.798Z,67
2022-10-18T11:52:30.302Z,66
2022-10-18T11:53:32.298Z,65
2022-10-18T11:54:34.409Z,66
2022-10-18T11:55:36.287Z,67
2022-10-18T11:56:38.240Z,66
2022-10-18T11:57:40.301Z,65
2022-10-18T11:58:42.400Z,66
2022-10-18T11:59:44.347Z,67
2022-10-18T12:00:46.325Z,66
2022-10-18T12:01:48.340Z,66
2022-10-18T12:02:50.383Z,66
2022-10-18T12:03:52.280Z,66
2022-10-18T12:05:18.819Z,67
2022-10-18T12:05:56.260Z,63
2022-10-18T12:06:58.363Z,66
2022-10-18T12:08:00.276Z,67
2022-10-18T12:09:02.378Z,65
2022-10-18T12:10:04.392Z,66
2022-10-18T12:11:06.854Z,66
2022-10-18T12:12:08.299Z,66
2022-10-18T12:13:10.161Z,66
2022-10-18T12:14:11.180Z,66
2022-10-18T12:15:12.279Z,67
2022-10-18T12:16:14.298Z,67
2022-10-18T12:17:46.280Z,67
2022-10-18T12:18:18.349Z,66
2022-10-18T12:19:25.158Z,66
2022-10-18T12:20:25.223Z,66
2022-10-18T12:21:26.347Z,66
2022-10-18T12:22:27.239Z,66
2022-10-18T12:23:28.199Z,66
2022-10-18T12:24:29.146Z,66
2022-10-18T12:25:30.208Z,67
2022-10-18T12:26:31.201Z,66
2022-10-18T12:27:32.220Z,67
2022-10-18T12:28:33.290Z,66
2022-10-18T12:29:35.412Z,67
2022-10-18T12:30:37.298Z,67
2022-10-18T12:31:39.299Z,65
2022-10-18T12:32:51.412Z,66
2022-10-18T12:33:43.711Z,66
2022-10-18T12:34:45.339Z,66
2022-10-18T12:35:47.307Z,66
2022-10-18T12:36:49.277Z,66
2022-10-18T12:37:51.240Z,66
2022-10-18T12:38:53.164Z,66
2022-10-18T12:40:12.361Z,67
2022-10-18T12:40:56.168Z,66
2022-10-18T12:41:57.252Z,66
2022-10-18T12:42:58.143Z,65
2022-10-18T12:43:59.239Z,66
2022-10-18T12:45:00.238Z,66
2022-10-18T12:46:01.141Z,65
2022-10-18T12:47:02.202Z,65
2022-10-18T12:48:03.178Z,66
2022-10-18T12:49:04.242Z,66
2022-10-18T12:50:05.302Z,66
2022-10-18T12:51:07.367Z,66
2022-10-18T12:52:09.279Z,66
2022-10-18T12:53:11.238Z,67
2022-10-18T12:54:13.358Z,68
2022-10-18T12:55:16.853Z,67
2022-10-18T12:56:17.742Z,67
2022-10-18T12:57:19.298Z,67
2022-10-18T12:58:21.339Z,67
2022-10-18T12:59:23.311Z,68
2022-10-18T13:00:25.299Z,68
2022-10-18T13:01:27.490Z,68
2022-10-18T13:02:29.346Z,67
2022-10-18T13:03:31.353Z,68
2022-10-18T13:04:33.269Z,68
2022-10-18T13:05:48.652Z,67
2022-10-18T13:06:37.321Z,68
2022-10-18T13:07:39.379Z,68
2022-10-18T13:08:41.338Z,68
2022-10-18T13:09:43.739Z,68
2022-10-18T13:10:45.244Z,68
2022-10-18T13:11:47.477Z,67
2022-10-18T13:12:49.299Z,69
2022-10-18T13:13:51.310Z,70
2022-10-18T13:14:59.265Z,68
2022-10-18T13:15:55.362Z,68
2022-10-18T13:16:57.380Z,69
2022-10-18T13:17:59.386Z,69
2022-10-18T13:19:01.306Z,68
2022-10-18T13:20:24.402Z,69
2022-10-18T13:21:05.309Z,69
2022-10-18T13:22:07.358Z,69
2022-10-18T13:23:09.441Z,68
2022-10-18T13:24:11.260Z,68
2022-10-18T13:25:13.249Z,66
2022-10-18T13:26:15.303Z,68
2022-10-18T13:27:34.793Z,66
2022-10-18T13:28:19.219Z,67
2022-10-18T13:29:21.358Z,68
2022-10-18T13:30:23.367Z,67
2022-10-18T13:31:25.421Z,66
2022-10-18T13:32:27.319Z,66
2022-10-18T13:33:29.247Z,67
2022-10-18T13:34:30.160Z,68
2022-10-18T13:35:31.303Z,65
2022-10-18T13:36:32.322Z,66
2022-10-18T13:37:34.279Z,66
2022-10-18T13:38:36.381Z,65
2022-10-18T13:39:38.319Z,65
2022-10-18T13:40:40.361Z,64
2022-10-18T13:41:42.280Z,65
2022-10-18T13:42:43.719Z,64
2022-10-18T13:43:47.845Z,65
2022-10-18T13:44:47.301Z,65
2022-10-18T13:45:49.327Z,64
2022-10-18T13:46:51.319Z,66
2022-10-18T13:47:53.362Z,65
2022-10-18T13:48:55.319Z,67
2022-10-18T13:49:59.543Z,65
2022-10-18T13:50:59.383Z,66
2022-10-18T13:52:01.379Z,67
2022-10-18T13:53:03.360Z,66
2022-10-18T13:54:05.362Z,65
2022-10-18T13:55:07.331Z,66
2022-10-18T13:56:09.350Z,66
2022-10-18T13:57:11.338Z,66
2022-10-18T13:58:13.459Z,66
2022-10-18T13:59:15.547Z,66
2022-10-18T14:00:17.485Z,66
2022-10-18T14:01:19.356Z,66
2022-10-18T14:02:30.940Z,65
2022-10-18T14:03:44.333Z,66
2022-10-18T14:04:25.268Z,66
2022-10-18T14:05:27.359Z,69
2022-10-18T14:06:29.423Z,70
2022-10-18T14:07:31.365Z,71
2022-10-18T14:09:52.334Z,69
2022-10-18T14:10:44.124Z,72
2022-10-18T14:11:41.110Z,72
2022-10-18T14:12:41.334Z,71
2022-10-18T14:13:43.839Z,72
2022-10-18T14:14:45.279Z,74
2022-10-18T14:15:47.374Z,75
2022-10-18T14:16:49.375Z,76
2022-10-18T14:17:51.267Z,76
2022-10-18T14:18:53.355Z,76
2022-10-18T14:19:55.346Z,77
2022-10-18T14:21:12.624Z,75
2022-10-18T14:21:59.342Z,72
2022-10-18T14:23:01.360Z,71
2022-10-18T14:24:03.348Z,69
2022-10-18T14:25:05.356Z,68
2022-10-18T14:26:07.329Z,67
2022-10-18T14:27:09.397Z,66
2022-10-18T14:28:12.209Z,65
2022-10-18T14:29:13.373Z,67
2022-10-18T14:30:15.315Z,67
2022-10-18T14:31:17.414Z,67
2022-10-18T14:32:19.279Z,67
2022-10-18T14:33:21.314Z,67
2022-10-18T14:34:23.283Z,69
2022-10-18T14:35:32.378Z,69
2022-10-18T14:36:26.267Z,69
2022-10-18T14:37:28.313Z,70
2022-10-18T14:38:30.303Z,71
2022-10-18T14:39:32.408Z,71
2022-10-18T14:40:34.349Z,72
2022-10-18T14:41:36.299Z,72
2022-10-18T14:42:38.351Z,72
2022-10-18T14:43:40.282Z,72
2022-10-18T14:44:41.200Z,73
2022-10-18T14:45:42.292Z,72
2022-10-18T14:46:44.300Z,73
2022-10-18T14:47:46.376Z,73
2022-10-18T14:48:48.381Z,71
2022-10-18T14:49:50.308Z,65